KMIAMKJP

Guest
Details From KMIA - Miami Intl
To MKJP - Norman Manley Intl
Flight Number -
Tags Routegen Generated
Created
Modified
Stats Distance 516 nm / 956 km
Max Altitude 7,800 ft / 2,377 m
Waypoints 13
Social Downloads 1
Likes 0
Share VATSIM

Download

Looking for another format? Having issues loading an existing format? Contact us
Advertisement - Login to hide

Notes

Departing runway 8 KMIA. Arriving runway 11 MKJP.

Route

KMIA +25.79_-080.20 +25.77_-080.13 +25.74_-080.08 +25.69_-080.05 +25.63_-080.03 +23.93_-079.30 +22.22_-078.60 +20.51_-077.90 +18.06_-076.94 +18.01_-076.92 +17.97_-076.87 MKJP

ID Type Via Altitude Latitude Longitude Leg Dist Tot Dist Heading (true) Name
O KMIA APT - 0 ft / 0 m 25.78773˚ -80.27535˚ - 0 nm - -
+25.79_-080.20 LATLON - 590 ft / 180 m 25.79102˚ -80.19506˚ 4 nm 4 nm 87° / 87° -
+25.77_-080.13 LATLON - 1,800 ft / 549 m 25.77372˚ -80.13371˚ 3 nm 7 nm 107° / 107° -
+25.74_-080.08 LATLON - 3,420 ft / 1,042 m 25.73857˚ -80.08263˚ 3 nm 11 nm 127° / 127° -
+25.69_-080.05 LATLON - 7,800 ft / 2,377 m 25.68980˚ -80.04800˚ 3 nm 14 nm 147° / 147° -
+25.63_-080.03 LATLON - 7,800 ft / 2,377 m 25.63331˚ -80.03397˚ 3 nm 18 nm 167° / 167° -
+23.93_-079.30 LATLON - 7,800 ft / 2,377 m 23.92766˚ -79.30403˚ 109 nm 128 nm 159° / 159° -
+22.22_-078.60 LATLON - 7,800 ft / 2,377 m 22.21943˚ -78.59544˚ 109 nm 237 nm 159° / 159° -
+20.51_-077.90 LATLON - 7,800 ft / 2,377 m 20.50821˚ -77.90393˚ 109 nm 347 nm 159° / 160° -
+18.06_-076.94 LATLON - 3,420 ft / 1,042 m 18.05743˚ -76.94361˚ 156 nm 504 nm 160° / 160° -
+18.01_-076.92 LATLON - 1,800 ft / 549 m 18.00627˚ -76.91511˚ 3 nm 508 nm 152° / 152° -
+17.97_-076.87 LATLON - 580 ft / 177 m 17.96747˚ -76.86994˚ 3 nm 511 nm 132° / 132° -
O MKJP APT - 0 ft / 0 m 17.94026˚ -76.79945˚ 4 nm 515 nm 112° / 112° -

Altitude Profile

Advertisement - Login to hide

Weather


0- 5 10 15 20 25 30 35+ Temperature / ° C

Clouds and Precipitation
Forecast for 2018-05-27 12:00 UTC. Updated an hour ago

Ground ~20,000 ft ~40,000 ft Winds

KMIA

Details ICAO KMIA (MIA)
Name Miami Intl
Region United States
Timezone America/New_York (UTC-4.0)
Stats Elevation 8 ft / 2 m (AMSL)
Location 25.796167° -80.289742°
Runways 4
Magnetic Variation 6.685° W

METAR

KMIA 270953Z 13016G21KT 7SM -RA BKN013 OVC050 24/24 A2978 RMK AO2 PK WND 13027/0906 SLP084 P0001 T02390239 $

Decode

TAF

TAF AMD KMIA 270541Z 2706/2812 11015G25KT P6SM SHRA SCT020 BKN025 OVC080 WS020/14050KT TEMPO 2706/2710 5SM RA BKN015 OVC025 FM271000 14018G28KT P6SM SHRA SCT015 BKN035 FM271500 17022G32KT P6SM VCTS BKN015CB OVC030 FM280000 14014G24KT P6SM VCSH BKN025 OVC040

Decode

Departure Runways

ID Width Length Bearing (true) Bearing (mag) Surface Threshold Offset Overrun Length
08L 151 ft / 46 m 8,588 ft / 2,618 m 87.35° 94.04° Asphalt 0 ft / 0 m 1,001 ft / 305 m
08R 200 ft / 61 m 10,490 ft / 3,197 m 87.37° 94.06° Asphalt 0 ft / 0 m 1,001 ft / 305 m
09 151 ft / 46 m 12,981 ft / 3,957 m 87.36° 94.05° Asphalt 1,348 ft / 411 m 1,001 ft / 305 m
12 151 ft / 46 m 9,353 ft / 2,851 m 119.60° 126.29° Asphalt 0 ft / 0 m 1,001 ft / 305 m
26L 200 ft / 61 m 10,490 ft / 3,197 m 267.38° 274.07° Asphalt 0 ft / 0 m 1,001 ft / 305 m
26R 151 ft / 46 m 8,588 ft / 2,618 m 267.37° 274.06° Asphalt 0 ft / 0 m 1,001 ft / 305 m
27 151 ft / 46 m 12,981 ft / 3,957 m 267.38° 274.07° Asphalt 1,270 ft / 387 m 899 ft / 274 m
30 151 ft / 46 m 9,353 ft / 2,851 m 299.61° 306.30° Asphalt 938 ft / 286 m 427 ft / 130 m

MKJP

Details ICAO MKJP (KIN)
Name Norman Manley Intl
Region Jamaica
Timezone Unknown (UTC+0.0)
Stats Elevation 10 ft / 3 m (AMSL)
Location 17.935665° -76.787560°
Runways 1
Magnetic Variation 7.591° W

METAR

MKJP 271000Z 13021KT 9999 FEW022 27/23 Q1010

Decode

TAF

TAF MKJP 270515Z 2706/2806 13020KT 9999 SCT022= TAF MKJS 270515Z 2706/2806 18005KT 9999 SCT022 TEMPO 2707/2715 8000 TSRA SCT018 BKN020CB

Decode

Destination Runways

ID Width Length Bearing (true) Bearing (mag) Surface Threshold Offset Overrun Length
12 150 ft / 46 m 8,912 ft / 2,717 m 112.09° 119.68° Asphalt 0 ft / 0 m 0 ft / 0 m
30 150 ft / 46 m 8,912 ft / 2,717 m 292.10° 299.69° Asphalt 0 ft / 0 m 0 ft / 0 m

Approach Navaids

Runway Type Ident Frequency Range Bearing (true) Bearing (mag) Slope Elevation
12 Localiser IMLY 109.10 MHz 18 nm / 33 km 115.09° 122.68° - 10 ft / 3 m (AMSL)
12 Glidescope IMLY 109.10 MHz 10 nm / 19 km 115.09° 122.68° 3.00° 8 ft / 2 m (AMSL)

Popular Alternatives